sensor_id;sensor_type;location;lat;lon;timestamp;pressure;altitude;pressure_sealevel;temperature
71463;BMP180;59266;52.608;13.260;2024-01-15T00:00:59;98920.00;;;2.00
71463;BMP180;59266;52.608;13.260;2024-01-15T00:03:26;98918.00;;;2.00
71463;BMP180;59266;52.608;13.260;2024-01-15T00:05:53;98907.00;;;2.00
71463;BMP180;59266;52.608;13.260;2024-01-15T00:08:19;98907.00;;;2.00
71463;BMP180;59266;52.608;13.260;2024-01-15T00:10:46;98893.00;;;2.00
71463;BMP180;59266;52.608;13.260;2024-01-15T00:13:15;98901.00;;;2.00
71463;BMP180;59266;52.608;13.260;2024-01-15T00:15:42;98888.00;;;2.00
71463;BMP180;59266;52.608;13.260;2024-01-15T00:18:10;98881.00;;;2.00
71463;BMP180;59266;52.608;13.260;2024-01-15T00:20:37;98882.00;;;2.00
71463;BMP180;59266;52.608;13.260;2024-01-15T00:23:04;98876.00;;;2.00
71463;BMP180;59266;52.608;13.260;2024-01-15T00:25:30;98867.00;;;2.00
71463;BMP180;59266;52.608;13.260;2024-01-15T00:27:57;98875.00;;;2.00
71463;BMP180;59266;52.608;13.260;2024-01-15T00:30:24;98859.00;;;2.00
71463;BMP180;59266;52.608;13.260;2024-01-15T00:32:50;98858.00;;;2.00
71463;BMP180;59266;52.608;13.260;2024-01-15T00:35:17;98854.00;;;2.00
71463;BMP180;59266;52.608;13.260;2024-01-15T00:37:44;98864.00;;;2.00
71463;BMP180;59266;52.608;13.260;2024-01-15T00:40:10;98846.00;;;2.00
71463;BMP180;59266;52.608;13.260;2024-01-15T00:42:37;98859.00;;;2.00
71463;BMP180;59266;52.608;13.260;2024-01-15T00:45:05;98851.00;;;2.00
71463;BMP180;59266;52.608;13.260;2024-01-15T00:47:34;98857.00;;;2.00
71463;BMP180;59266;52.608;13.260;2024-01-15T00:50:01;98858.00;;;1.90
71463;BMP180;59266;52.608;13.260;2024-01-15T00:52:28;98848.00;;;2.00
71463;BMP180;59266;52.608;13.260;2024-01-15T00:54:54;98852.00;;;2.00
71463;BMP180;59266;52.608;13.260;2024-01-15T00:57:21;98843.00;;;1.90
71463;BMP180;59266;52.608;13.260;2024-01-15T00:59:50;98843.00;;;1.80
71463;BMP180;59266;52.608;13.260;2024-01-15T01:02:17;98837.00;;;1.70
71463;BMP180;59266;52.608;13.260;2024-01-15T01:04:44;98833.00;;;1.70
71463;BMP180;59266;52.608;13.260;2024-01-15T01:07:11;98839.00;;;1.60
71463;BMP180;59266;52.608;13.260;2024-01-15T01:09:38;98837.00;;;1.60
71463;BMP180;59266;52.608;13.260;2024-01-15T01:12:05;98839.00;;;1.60
71463;BMP180;59266;52.608;13.260;2024-01-15T01:14:32;98843.00;;;1.50
71463;BMP180;59266;52.608;13.260;2024-01-15T01:16:58;98837.00;;;1.60
71463;BMP180;59266;52.608;13.260;2024-01-15T01:19:25;98840.00;;;1.60
71463;BMP180;59266;52.608;13.260;2024-01-15T01:21:52;98845.00;;;1.60
71463;BMP180;59266;52.608;13.260;2024-01-15T01:24:19;98844.00;;;1.60
71463;BMP180;59266;52.608;13.260;2024-01-15T01:26:45;98841.00;;;1.60
71463;BMP180;59266;52.608;13.260;2024-01-15T01:29:16;98837.00;;;1.60
71463;BMP180;59266;52.608;13.260;2024-01-15T01:31:46;98832.00;;;1.60
71463;BMP180;59266;52.608;13.260;2024-01-15T01:34:14;98822.00;;;1.70
71463;BMP180;59266;52.608;13.260;2024-01-15T01:36:42;98825.00;;;1.70
71463;BMP180;59266;52.608;13.260;2024-01-15T01:39:09;98827.00;;;1.70
71463;BMP180;59266;52.608;13.260;2024-01-15T01:41:38;98824.00;;;1.70
71463;BMP180;59266;52.608;13.260;2024-01-15T01:44:05;98833.00;;;1.70
71463;BMP180;59266;52.608;13.260;2024-01-15T01:46:32;98826.00;;;1.70
71463;BMP180;59266;52.608;13.260;2024-01-15T01:49:00;98825.00;;;1.70
71463;BMP180;59266;52.608;13.260;2024-01-15T01:51:33;98833.00;;;1.70
71463;BMP180;59266;52.608;13.260;2024-01-15T01:54:00;98823.00;;;1.70
71463;BMP180;59266;52.608;13.260;2024-01-15T01:56:27;98821.00;;;1.70
71463;BMP180;59266;52.608;13.260;2024-01-15T01:58:54;98824.00;;;1.80
71463;BMP180;59266;52.608;13.260;2024-01-15T02:01:24;98812.00;;;1.70
71463;BMP180;59266;52.608;13.260;2024-01-15T02:03:51;98804.00;;;1.70
71463;BMP180;59266;52.608;13.260;2024-01-15T02:06:19;98803.00;;;1.60
71463;BMP180;59266;52.608;13.260;2024-01-15T02:08:49;98808.00;;;1.60
71463;BMP180;59266;52.608;13.260;2024-01-15T02:11:16;98797.00;;;1.50
71463;BMP180;59266;52.608;13.260;2024-01-15T02:13:43;98808.00;;;1.50
71463;BMP180;59266;52.608;13.260;2024-01-15T02:16:10;98812.00;;;1.50
71463;BMP180;59266;52.608;13.260;2024-01-15T02:18:41;98807.00;;;1.50
71463;BMP180;59266;52.608;13.260;2024-01-15T02:21:09;98799.00;;;1.50
71463;BMP180;59266;52.608;13.260;2024-01-15T02:23:35;98791.00;;;1.60
71463;BMP180;59266;52.608;13.260;2024-01-15T02:26:02;98795.00;;;1.50
71463;BMP180;59266;52.608;13.260;2024-01-15T02:28:30;98798.00;;;1.50
71463;BMP180;59266;52.608;13.260;2024-01-15T02:30:57;98785.00;;;1.50
71463;BMP180;59266;52.608;13.260;2024-01-15T02:33:24;98784.00;;;1.40
71463;BMP180;59266;52.608;13.260;2024-01-15T02:35:51;98791.00;;;1.40
71463;BMP180;59266;52.608;13.260;2024-01-15T02:38:18;98781.00;;;1.40
71463;BMP180;59266;52.608;13.260;2024-01-15T02:40:45;98778.00;;;1.50
71463;BMP180;59266;52.608;13.260;2024-01-15T02:43:12;98781.00;;;1.50
71463;BMP180;59266;52.608;13.260;2024-01-15T02:45:40;98777.00;;;1.50
71463;BMP180;59266;52.608;13.260;2024-01-15T02:48:07;98779.00;;;1.50
71463;BMP180;59266;52.608;13.260;2024-01-15T02:50:33;98782.00;;;1.60
71463;BMP180;59266;52.608;13.260;2024-01-15T02:53:00;98779.00;;;1.60
71463;BMP180;59266;52.608;13.260;2024-01-15T02:55:27;98769.00;;;1.60
71463;BMP180;59266;52.608;13.260;2024-01-15T02:57:56;98763.00;;;1.60
71463;BMP180;59266;52.608;13.260;2024-01-15T03:00:23;98768.00;;;1.60
71463;BMP180;59266;52.608;13.260;2024-01-15T03:02:50;98757.00;;;1.70
71463;BMP180;59266;52.608;13.260;2024-01-15T03:05:17;98754.00;;;1.70
71463;BMP180;59266;52.608;13.260;2024-01-15T03:07:44;98756.00;;;1.70
71463;BMP180;59266;52.608;13.260;2024-01-15T03:10:11;98756.00;;;1.70
71463;BMP180;59266;52.608;13.260;2024-01-15T03:12:38;98761.00;;;1.70
71463;BMP180;59266;52.608;13.260;2024-01-15T03:15:05;98745.00;;;1.70
71463;BMP180;59266;52.608;13.260;2024-01-15T03:17:32;98754.00;;;1.80
71463;BMP180;59266;52.608;13.260;2024-01-15T03:19:59;98761.00;;;1.80
71463;BMP180;59266;52.608;13.260;2024-01-15T03:22:26;98754.00;;;1.80
71463;BMP180;59266;52.608;13.260;2024-01-15T03:24:53;98762.00;;;1.70
71463;BMP180;59266;52.608;13.260;2024-01-15T03:27:20;98743.00;;;1.70
71463;BMP180;59266;52.608;13.260;2024-01-15T03:29:46;98739.00;;;1.70
71463;BMP180;59266;52.608;13.260;2024-01-15T03:32:13;98744.00;;;1.70
71463;BMP180;59266;52.608;13.260;2024-01-15T03:34:42;98734.00;;;1.70
71463;BMP180;59266;52.608;13.260;2024-01-15T03:37:09;98733.00;;;1.70
71463;BMP180;59266;52.608;13.260;2024-01-15T03:39:35;98743.00;;;1.70
71463;BMP180;59266;52.608;13.260;2024-01-15T03:42:03;98736.00;;;1.80
71463;BMP180;59266;52.608;13.260;2024-01-15T03:44:30;98736.00;;;1.80
71463;BMP180;59266;52.608;13.260;2024-01-15T03:46:57;98731.00;;;1.80
71463;BMP180;59266;52.608;13.260;2024-01-15T03:49:24;98734.00;;;1.80
71463;BMP180;59266;52.608;13.260;2024-01-15T03:51:51;98726.00;;;1.80
71463;BMP180;59266;52.608;13.260;2024-01-15T03:54:18;98720.00;;;1.80
71463;BMP180;59266;52.608;13.260;2024-01-15T03:56:46;98720.00;;;1.80
71463;BMP180;59266;52.608;13.260;2024-01-15T03:59:15;98720.00;;;1.80
71463;BMP180;59266;52.608;13.260;2024-01-15T04:01:48;98707.00;;;1.80
71463;BMP180;59266;52.608;13.260;2024-01-15T04:04:16;98703.00;;;1.90
71463;BMP180;59266;52.608;13.260;2024-01-15T04:06:43;98700.00;;;1.80
71463;BMP180;59266;52.608;13.260;2024-01-15T04:09:12;98697.00;;;1.90
71463;BMP180;59266;52.608;13.260;2024-01-15T04:11:39;98707.00;;;1.80
71463;BMP180;59266;52.608;13.260;2024-01-15T04:14:06;98694.00;;;1.90
71463;BMP180;59266;52.608;13.260;2024-01-15T04:16:32;98691.00;;;1.90
71463;BMP180;59266;52.608;13.260;2024-01-15T04:18:59;98685.00;;;1.90
71463;BMP180;59266;52.608;13.260;2024-01-15T04:21:26;98698.00;;;1.90
71463;BMP180;59266;52.608;13.260;2024-01-15T04:23:53;98708.00;;;1.90
71463;BMP180;59266;52.608;13.260;2024-01-15T04:26:19;98706.00;;;1.90
71463;BMP180;59266;52.608;13.260;2024-01-15T04:28:46;98710.00;;;2.00
71463;BMP180;59266;52.608;13.260;2024-01-15T04:31:25;98699.00;;;1.90
71463;BMP180;59266;52.608;13.260;2024-01-15T04:33:54;98702.00;;;1.90
71463;BMP180;59266;52.608;13.260;2024-01-15T04:36:20;98696.00;;;1.90
71463;BMP180;59266;52.608;13.260;2024-01-15T04:38:47;98682.00;;;1.90
71463;BMP180;59266;52.608;13.260;2024-01-15T04:41:16;98685.00;;;2.00
71463;BMP180;59266;52.608;13.260;2024-01-15T04:43:43;98683.00;;;2.00
71463;BMP180;59266;52.608;13.260;2024-01-15T04:46:09;98692.00;;;2.00
71463;BMP180;59266;52.608;13.260;2024-01-15T04:48:36;98691.00;;;2.00
71463;BMP180;59266;52.608;13.260;2024-01-15T04:51:08;98684.00;;;2.00
71463;BMP180;59266;52.608;13.260;2024-01-15T04:53:35;98684.00;;;2.00
71463;BMP180;59266;52.608;13.260;2024-01-15T04:56:02;98674.00;;;2.00
71463;BMP180;59266;52.608;13.260;2024-01-15T04:58:29;98683.00;;;2.10
71463;BMP180;59266;52.608;13.260;2024-01-15T05:00:56;98688.00;;;2.00
71463;BMP180;59266;52.608;13.260;2024-01-15T05:03:23;98675.00;;;2.10
71463;BMP180;59266;52.608;13.260;2024-01-15T05:05:50;98674.00;;;2.10
71463;BMP180;59266;52.608;13.260;2024-01-15T05:08:17;98663.00;;;2.10
71463;BMP180;59266;52.608;13.260;2024-01-15T05:10:44;98661.00;;;2.10
71463;BMP180;59266;52.608;13.260;2024-01-15T05:13:12;98676.00;;;2.10
71463;BMP180;59266;52.608;13.260;2024-01-15T05:15:41;98673.00;;;2.10
71463;BMP180;59266;52.608;13.260;2024-01-15T05:18:08;98678.00;;;2.00
71463;BMP180;59266;52.608;13.260;2024-01-15T05:20:35;98675.00;;;1.90
71463;BMP180;59266;52.608;13.260;2024-01-15T05:23:01;98668.00;;;1.80
71463;BMP180;59266;52.608;13.260;2024-01-15T05:25:28;98656.00;;;1.90
71463;BMP180;59266;52.608;13.260;2024-01-15T05:27:55;98653.00;;;1.90
71463;BMP180;59266;52.608;13.260;2024-01-15T05:30:21;98657.00;;;2.00
71463;BMP180;59266;52.608;13.260;2024-01-15T05:32:51;98652.00;;;2.00
71463;BMP180;59266;52.608;13.260;2024-01-15T05:35:18;98664.00;;;2.10
71463;BMP180;59266;52.608;13.260;2024-01-15T05:37:45;98663.00;;;2.10
71463;BMP180;59266;52.608;13.260;2024-01-15T05:40:13;98658.00;;;2.10
71463;BMP180;59266;52.608;13.260;2024-01-15T05:42:40;98656.00;;;2.20
71463;BMP180;59266;52.608;13.260;2024-01-15T05:45:08;98650.00;;;2.20
71463;BMP180;59266;52.608;13.260;2024-01-15T05:47:35;98649.00;;;2.20
71463;BMP180;59266;52.608;13.260;2024-01-15T05:50:02;98661.00;;;2.20
71463;BMP180;59266;52.608;13.260;2024-01-15T05:52:29;98663.00;;;2.20
71463;BMP180;59266;52.608;13.260;2024-01-15T05:54:55;98658.00;;;2.20
71463;BMP180;59266;52.608;13.260;2024-01-15T05:57:22;98662.00;;;2.20
71463;BMP180;59266;52.608;13.260;2024-01-15T05:59:49;98656.00;;;2.20
71463;BMP180;59266;52.608;13.260;2024-01-15T06:02:15;98658.00;;;2.20
71463;BMP180;59266;52.608;13.260;2024-01-15T06:04:42;98649.00;;;2.20
71463;BMP180;59266;52.608;13.260;2024-01-15T06:07:09;98670.00;;;2.20
71463;BMP180;59266;52.608;13.260;2024-01-15T06:09:36;98651.00;;;2.20
71463;BMP180;59266;52.608;13.260;2024-01-15T06:12:03;98650.00;;;2.20
71463;BMP180;59266;52.608;13.260;2024-01-15T06:14:29;98663.00;;;2.10
71463;BMP180;59266;52.608;13.260;2024-01-15T06:16:56;98657.00;;;2.20
71463;BMP180;59266;52.608;13.260;2024-01-15T06:19:22;98647.00;;;2.10
71463;BMP180;59266;52.608;13.260;2024-01-15T06:21:49;98643.00;;;2.20
71463;BMP180;59266;52.608;13.260;2024-01-15T06:24:16;98643.00;;;2.20
71463;BMP180;59266;52.608;13.260;2024-01-15T06:26:46;98653.00;;;2.20
71463;BMP180;59266;52.608;13.260;2024-01-15T06:29:13;98646.00;;;2.30
71463;BMP180;59266;52.608;13.260;2024-01-15T06:31:39;98650.00;;;2.20
71463;BMP180;59266;52.608;13.260;2024-01-15T06:34:06;98652.00;;;2.20
71463;BMP180;59266;52.608;13.260;2024-01-15T06:36:34;98649.00;;;2.30
71463;BMP180;59266;52.608;13.260;2024-01-15T06:39:00;98656.00;;;2.20
71463;BMP180;59266;52.608;13.260;2024-01-15T06:41:27;98658.00;;;2.20
71463;BMP180;59266;52.608;13.260;2024-01-15T06:43:53;98658.00;;;2.20
71463;BMP180;59266;52.608;13.260;2024-01-15T06:46:21;98645.00;;;2.20
71463;BMP180;59266;52.608;13.260;2024-01-15T06:48:48;98650.00;;;2.10
71463;BMP180;59266;52.608;13.260;2024-01-15T06:51:16;98651.00;;;2.20
71463;BMP180;59266;52.608;13.260;2024-01-15T06:53:43;98640.00;;;2.20
71463;BMP180;59266;52.608;13.260;2024-01-15T06:56:09;98655.00;;;2.20
71463;BMP180;59266;52.608;13.260;2024-01-15T06:58:36;98673.00;;;2.20
71463;BMP180;59266;52.608;13.260;2024-01-15T07:01:03;98665.00;;;2.30
71463;BMP180;59266;52.608;13.260;2024-01-15T07:03:31;98669.00;;;2.20
71463;BMP180;59266;52.608;13.260;2024-01-15T07:05:58;98689.00;;;2.30
71463;BMP180;59266;52.608;13.260;2024-01-15T07:08:25;98687.00;;;2.20
71463;BMP180;59266;52.608;13.260;2024-01-15T07:10:51;98690.00;;;2.20
71463;BMP180;59266;52.608;13.260;2024-01-15T07:13:18;98687.00;;;2.10
71463;BMP180;59266;52.608;13.260;2024-01-15T07:15:45;98686.00;;;2.10
71463;BMP180;59266;52.608;13.260;2024-01-15T07:18:12;98693.00;;;2.10
71463;BMP180;59266;52.608;13.260;2024-01-15T07:20:39;98698.00;;;2.10
71463;BMP180;59266;52.608;13.260;2024-01-15T07:23:05;98692.00;;;2.10
71463;BMP180;59266;52.608;13.260;2024-01-15T07:25:33;98711.00;;;2.10
71463;BMP180;59266;52.608;13.260;2024-01-15T07:28:00;98696.00;;;2.10
71463;BMP180;59266;52.608;13.260;2024-01-15T07:30:27;98700.00;;;2.20
71463;BMP180;59266;52.608;13.260;2024-01-15T07:32:53;98720.00;;;2.20
71463;BMP180;59266;52.608;13.260;2024-01-15T07:35:20;98721.00;;;2.20
71463;BMP180;59266;52.608;13.260;2024-01-15T07:37:47;98703.00;;;2.30
71463;BMP180;59266;52.608;13.260;2024-01-15T07:40:15;98703.00;;;2.30
71463;BMP180;59266;52.608;13.260;2024-01-15T07:42:42;98718.00;;;2.30
71463;BMP180;59266;52.608;13.260;2024-01-15T07:45:10;98728.00;;;2.30
71463;BMP180;59266;52.608;13.260;2024-01-15T07:47:37;98725.00;;;2.40
71463;BMP180;59266;52.608;13.260;2024-01-15T07:50:03;98721.00;;;2.30
71463;BMP180;59266;52.608;13.260;2024-01-15T07:52:32;98730.00;;;2.30
71463;BMP180;59266;52.608;13.260;2024-01-15T07:54:59;98719.00;;;2.30
71463;BMP180;59266;52.608;13.260;2024-01-15T07:57:30;98713.00;;;2.40
71463;BMP180;59266;52.608;13.260;2024-01-15T07:59:57;98727.00;;;2.40
71463;BMP180;59266;52.608;13.260;2024-01-15T08:02:24;98727.00;;;2.40
71463;BMP180;59266;52.608;13.260;2024-01-15T08:04:50;98714.00;;;2.40
71463;BMP180;59266;52.608;13.260;2024-01-15T08:07:17;98717.00;;;2.40
71463;BMP180;59266;52.608;13.260;2024-01-15T08:09:44;98737.00;;;2.40
71463;BMP180;59266;52.608;13.260;2024-01-15T08:12:13;98737.00;;;2.40
71463;BMP180;59266;52.608;13.260;2024-01-15T08:14:40;98731.00;;;2.40
71463;BMP180;59266;52.608;13.260;2024-01-15T08:17:06;98732.00;;;2.40
71463;BMP180;59266;52.608;13.260;2024-01-15T08:19:33;98732.00;;;2.50
71463;BMP180;59266;52.608;13.260;2024-01-15T08:22:00;98731.00;;;2.50
71463;BMP180;59266;52.608;13.260;2024-01-15T08:24:26;98724.00;;;2.50
71463;BMP180;59266;52.608;13.260;2024-01-15T08:26:53;98732.00;;;2.50
71463;BMP180;59266;52.608;13.260;2024-01-15T08:29:20;98722.00;;;2.50
71463;BMP180;59266;52.608;13.260;2024-01-15T08:31:47;98731.00;;;2.60
71463;BMP180;59266;52.608;13.260;2024-01-15T08:34:14;98734.00;;;2.50
71463;BMP180;59266;52.608;13.260;2024-01-15T08:36:41;98735.00;;;2.50
71463;BMP180;59266;52.608;13.260;2024-01-15T08:39:08;98733.00;;;2.50
71463;BMP180;59266;52.608;13.260;2024-01-15T08:41:36;98728.00;;;2.60
71463;BMP180;59266;52.608;13.260;2024-01-15T08:44:03;98734.00;;;2.60
71463;BMP180;59266;52.608;13.260;2024-01-15T08:46:29;98736.00;;;2.60
71463;BMP180;59266;52.608;13.260;2024-01-15T08:48:56;98729.00;;;2.50
71463;BMP180;59266;52.608;13.260;2024-01-15T08:51:23;98742.00;;;2.50
71463;BMP180;59266;52.608;13.260;2024-01-15T08:53:50;98726.00;;;2.40
71463;BMP180;59266;52.608;13.260;2024-01-15T08:56:16;98738.00;;;2.50
71463;BMP180;59266;52.608;13.260;2024-01-15T08:58:43;98748.00;;;2.50
71463;BMP180;59266;52.608;13.260;2024-01-15T09:01:10;98752.00;;;2.60
71463;BMP180;59266;52.608;13.260;2024-01-15T09:03:37;98745.00;;;2.60
71463;BMP180;59266;52.608;13.260;2024-01-15T09:06:03;98754.00;;;2.60
71463;BMP180;59266;52.608;13.260;2024-01-15T09:08:30;98747.00;;;2.60
71463;BMP180;59266;52.608;13.260;2024-01-15T09:10:57;98751.00;;;2.60
71463;BMP180;59266;52.608;13.260;2024-01-15T09:13:23;98753.00;;;2.60
71463;BMP180;59266;52.608;13.260;2024-01-15T09:15:50;98755.00;;;2.60
71463;BMP180;59266;52.608;13.260;2024-01-15T09:18:34;98756.00;;;2.70
71463;BMP180;59266;52.608;13.260;2024-01-15T09:21:03;98760.00;;;2.60
71463;BMP180;59266;52.608;13.260;2024-01-15T09:23:29;98762.00;;;2.70
71463;BMP180;59266;52.608;13.260;2024-01-15T09:25:56;98758.00;;;2.70
71463;BMP180;59266;52.608;13.260;2024-01-15T09:28:23;98759.00;;;2.80
71463;BMP180;59266;52.608;13.260;2024-01-15T09:30:49;98763.00;;;2.90
71463;BMP180;59266;52.608;13.260;2024-01-15T09:33:16;98764.00;;;2.90
71463;BMP180;59266;52.608;13.260;2024-01-15T09:35:43;98761.00;;;2.90
71463;BMP180;59266;52.608;13.260;2024-01-15T09:38:09;98759.00;;;3.00
71463;BMP180;59266;52.608;13.260;2024-01-15T09:40:38;98759.00;;;3.00
71463;BMP180;59266;52.608;13.260;2024-01-15T09:43:04;98770.00;;;3.00
71463;BMP180;59266;52.608;13.260;2024-01-15T09:45:32;98771.00;;;3.10
71463;BMP180;59266;52.608;13.260;2024-01-15T09:47:58;98755.00;;;3.10
71463;BMP180;59266;52.608;13.260;2024-01-15T09:50:25;98759.00;;;3.20
71463;BMP180;59266;52.608;13.260;2024-01-15T09:52:54;98760.00;;;3.20
71463;BMP180;59266;52.608;13.260;2024-01-15T09:55:21;98759.00;;;3.30
71463;BMP180;59266;52.608;13.260;2024-01-15T09:57:48;98764.00;;;3.30
71463;BMP180;59266;52.608;13.260;2024-01-15T10:00:18;98758.00;;;3.50
71463;BMP180;59266;52.608;13.260;2024-01-15T10:02:45;98761.00;;;3.50
71463;BMP180;59266;52.608;13.260;2024-01-15T10:05:14;98759.00;;;3.50
71463;BMP180;59266;52.608;13.260;2024-01-15T10:07:42;98764.00;;;3.50
71463;BMP180;59266;52.608;13.260;2024-01-15T10:10:10;98762.00;;;3.50
71463;BMP180;59266;52.608;13.260;2024-01-15T10:12:37;98748.00;;;3.50
71463;BMP180;59266;52.608;13.260;2024-01-15T10:15:05;98764.00;;;3.50
71463;BMP180;59266;52.608;13.260;2024-01-15T10:17:32;98757.00;;;3.40
71463;BMP180;59266;52.608;13.260;2024-01-15T10:19:58;98760.00;;;3.40
71463;BMP180;59266;52.608;13.260;2024-01-15T10:22:25;98763.00;;;3.50
71463;BMP180;59266;52.608;13.260;2024-01-15T10:24:52;98764.00;;;3.40
71463;BMP180;59266;52.608;13.260;2024-01-15T10:27:19;98763.00;;;3.30
71463;BMP180;59266;52.608;13.260;2024-01-15T10:29:52;98769.00;;;3.30
71463;BMP180;59266;52.608;13.260;2024-01-15T10:32:20;98766.00;;;3.30
71463;BMP180;59266;52.608;13.260;2024-01-15T10:34:52;98777.00;;;3.20
71463;BMP180;59266;52.608;13.260;2024-01-15T10:37:19;98774.00;;;3.20
71463;BMP180;59266;52.608;13.260;2024-01-15T10:39:49;98785.00;;;3.20
71463;BMP180;59266;52.608;13.260;2024-01-15T10:42:19;98776.00;;;3.30
71463;BMP180;59266;52.608;13.260;2024-01-15T10:44:46;98771.00;;;3.20
71463;BMP180;59266;52.608;13.260;2024-01-15T10:47:14;98778.00;;;3.30
71463;BMP180;59266;52.608;13.260;2024-01-15T10:49:41;98765.00;;;3.40
71463;BMP180;59266;52.608;13.260;2024-01-15T10:52:08;98766.00;;;3.40
71463;BMP180;59266;52.608;13.260;2024-01-15T10:54:37;98760.00;;;3.50
71463;BMP180;59266;52.608;13.260;2024-01-15T10:57:04;98754.00;;;3.60
71463;BMP180;59266;52.608;13.260;2024-01-15T10:59:32;98749.00;;;3.60
71463;BMP180;59266;52.608;13.260;2024-01-15T11:02:00;98758.00;;;3.70
71463;BMP180;59266;52.608;13.260;2024-01-15T11:04:27;98765.00;;;3.60
71463;BMP180;59266;52.608;13.260;2024-01-15T11:06:55;98761.00;;;3.40
71463;BMP180;59266;52.608;13.260;2024-01-15T11:09:23;98763.00;;;3.40
71463;BMP180;59266;52.608;13.260;2024-01-15T11:12:09;98764.00;;;3.50
71463;BMP180;59266;52.608;13.260;2024-01-15T11:14:41;98767.00;;;3.40
71463;BMP180;59266;52.608;13.260;2024-01-15T11:17:11;98755.00;;;3.60
71463;BMP180;59266;52.608;13.260;2024-01-15T11:19:45;98763.00;;;3.50
71463;BMP180;59266;52.608;13.260;2024-01-15T11:25:14;98774.00;;;3.60
71463;BMP180;59266;52.608;13.260;2024-01-15T11:27:43;98773.00;;;3.60
71463;BMP180;59266;52.608;13.260;2024-01-15T11:30:11;98774.00;;;3.50
71463;BMP180;59266;52.608;13.260;2024-01-15T11:32:39;98782.00;;;3.30
71463;BMP180;59266;52.608;13.260;2024-01-15T11:35:10;98778.00;;;3.30
71463;BMP180;59266;52.608;13.260;2024-01-15T11:38:07;98785.00;;;3.20
71463;BMP180;59266;52.608;13.260;2024-01-15T11:43:02;98784.00;;;3.00
71463;BMP180;59266;52.608;13.260;2024-01-15T11:45:30;98787.00;;;2.90
71463;BMP180;59266;52.608;13.260;2024-01-15T11:48:25;98793.00;;;2.70
71463;BMP180;59266;52.608;13.260;2024-01-15T11:51:00;98800.00;;;2.60
71463;BMP180;59266;52.608;13.260;2024-01-15T11:53:32;98804.00;;;2.60
71463;BMP180;59266;52.608;13.260;2024-01-15T11:56:02;98803.00;;;2.60
71463;BMP180;59266;52.608;13.260;2024-01-15T11:58:29;98809.00;;;2.60
71463;BMP180;59266;52.608;13.260;2024-01-15T12:00:56;98794.00;;;2.60
71463;BMP180;59266;52.608;13.260;2024-01-15T12:03:24;98797.00;;;2.60
71463;BMP180;59266;52.608;13.260;2024-01-15T12:05:54;98795.00;;;2.60
71463;BMP180;59266;52.608;13.260;2024-01-15T12:08:24;98800.00;;;2.60
71463;BMP180;59266;52.608;13.260;2024-01-15T12:10:52;98808.00;;;2.50
71463;BMP180;59266;52.608;13.260;2024-01-15T12:13:20;98803.00;;;2.60
71463;BMP180;59266;52.608;13.260;2024-01-15T12:15:47;98810.00;;;2.50
71463;BMP180;59266;52.608;13.260;2024-01-15T12:18:17;98802.00;;;2.70
71463;BMP180;59266;52.608;13.260;2024-01-15T12:20:45;98805.00;;;2.70
71463;BMP180;59266;52.608;13.260;2024-01-15T12:23:17;98801.00;;;2.60
71463;BMP180;59266;52.608;13.260;2024-01-15T12:25:45;98800.00;;;2.60
71463;BMP180;59266;52.608;13.260;2024-01-15T12:28:12;98807.00;;;2.60
71463;BMP180;59266;52.608;13.260;2024-01-15T12:30:39;98808.00;;;2.50
71463;BMP180;59266;52.608;13.260;2024-01-15T12:33:07;98814.00;;;2.40
71463;BMP180;59266;52.608;13.260;2024-01-15T12:35:36;98824.00;;;2.30
71463;BMP180;59266;52.608;13.260;2024-01-15T12:38:03;98815.00;;;2.20
71463;BMP180;59266;52.608;13.260;2024-01-15T12:40:31;98804.00;;;2.20
71463;BMP180;59266;52.608;13.260;2024-01-15T12:42:59;98814.00;;;2.20
71463;BMP180;59266;52.608;13.260;2024-01-15T12:45:26;98821.00;;;2.30
71463;BMP180;59266;52.608;13.260;2024-01-15T12:47:53;98809.00;;;2.30
71463;BMP180;59266;52.608;13.260;2024-01-15T12:50:24;98821.00;;;2.30
71463;BMP180;59266;52.608;13.260;2024-01-15T12:52:50;98814.00;;;2.40
71463;BMP180;59266;52.608;13.260;2024-01-15T12:55:17;98813.00;;;2.30
71463;BMP180;59266;52.608;13.260;2024-01-15T12:57:43;98824.00;;;2.40
71463;BMP180;59266;52.608;13.260;2024-01-15T13:00:12;98818.00;;;2.50
71463;BMP180;59266;52.608;13.260;2024-01-15T13:02:40;98835.00;;;2.40
71463;BMP180;59266;52.608;13.260;2024-01-15T13:05:08;98841.00;;;2.40
71463;BMP180;59266;52.608;13.260;2024-01-15T13:07:39;98828.00;;;2.50
71463;BMP180;59266;52.608;13.260;2024-01-15T13:10:06;98834.00;;;2.40
71463;BMP180;59266;52.608;13.260;2024-01-15T13:12:34;98837.00;;;2.50
71463;BMP180;59266;52.608;13.260;2024-01-15T13:15:00;98848.00;;;2.50
71463;BMP180;59266;52.608;13.260;2024-01-15T13:17:30;98860.00;;;2.40
71463;BMP180;59266;52.608;13.260;2024-01-15T13:19:56;98855.00;;;2.40
71463;BMP180;59266;52.608;13.260;2024-01-15T13:22:24;98860.00;;;2.50
71463;BMP180;59266;52.608;13.260;2024-01-15T13:24:56;98863.00;;;2.50
71463;BMP180;59266;52.608;13.260;2024-01-15T13:27:22;98868.00;;;2.50
71463;BMP180;59266;52.608;13.260;2024-01-15T13:29:49;98863.00;;;2.50
71463;BMP180;59266;52.608;13.260;2024-01-15T13:32:25;98867.00;;;2.40
71463;BMP180;59266;52.608;13.260;2024-01-15T13:34:53;98867.00;;;2.50
71463;BMP180;59266;52.608;13.260;2024-01-15T13:37:20;98870.00;;;2.40
71463;BMP180;59266;52.608;13.260;2024-01-15T13:39:46;98870.00;;;2.30
71463;BMP180;59266;52.608;13.260;2024-01-15T13:42:14;98866.00;;;2.40
71463;BMP180;59266;52.608;13.260;2024-01-15T13:44:42;98874.00;;;2.40
71463;BMP180;59266;52.608;13.260;2024-01-15T13:47:08;98878.00;;;2.50
71463;BMP180;59266;52.608;13.260;2024-01-15T13:49:35;98877.00;;;2.50
71463;BMP180;59266;52.608;13.260;2024-01-15T13:52:04;98876.00;;;2.40
71463;BMP180;59266;52.608;13.260;2024-01-15T13:54:31;98886.00;;;2.40
71463;BMP180;59266;52.608;13.260;2024-01-15T13:57:14;98886.00;;;2.40
71463;BMP180;59266;52.608;13.260;2024-01-15T13:59:41;98906.00;;;2.40
71463;BMP180;59266;52.608;13.260;2024-01-15T14:02:08;98907.00;;;2.40
71463;BMP180;59266;52.608;13.260;2024-01-15T14:04:37;98904.00;;;2.30
71463;BMP180;59266;52.608;13.260;2024-01-15T14:07:04;98923.00;;;2.40
71463;BMP180;59266;52.608;13.260;2024-01-15T14:09:31;98924.00;;;2.40
71463;BMP180;59266;52.608;13.260;2024-01-15T14:11:58;98907.00;;;2.30
71463;BMP180;59266;52.608;13.260;2024-01-15T14:14:25;98921.00;;;2.40
71463;BMP180;59266;52.608;13.260;2024-01-15T14:16:52;98934.00;;;2.40